createdAt,value
2023-01-10T18:01:25.475Z,6.70
2023-01-10T18:03:52.864Z,6.60
2023-01-10T18:06:25.082Z,6.60
2023-01-10T18:08:52.883Z,6.70
2023-01-10T18:11:19.589Z,6.70
2023-01-10T18:13:46.318Z,6.70
2023-01-10T18:16:12.907Z,6.70
2023-01-10T18:18:39.573Z,6.70
2023-01-10T18:21:16.548Z,6.80
2023-01-10T18:23:43.290Z,6.80
2023-01-10T18:26:12.654Z,6.80
2023-01-10T18:28:42.712Z,6.80
2023-01-10T18:31:19.716Z,6.80
2023-01-10T18:33:47.673Z,6.80
2023-01-10T18:36:19.806Z,6.80
2023-01-10T18:38:47.710Z,6.80
2023-01-10T18:41:15.701Z,6.80
2023-01-10T18:43:42.401Z,6.80
2023-01-10T18:46:15.216Z,6.80
2023-01-10T18:48:41.811Z,6.80
2023-01-10T18:51:09.972Z,6.80
2023-01-10T18:53:38.191Z,6.80
2023-01-10T18:56:05.896Z,6.80
2023-01-10T18:58:35.855Z,6.80
2023-01-10T19:01:17.952Z,6.80
2023-01-10T19:03:46.652Z,6.80
2023-01-10T19:06:16.414Z,6.80
2023-01-10T19:08:44.674Z,6.90
2023-01-10T19:11:16.403Z,6.90
2023-01-10T19:13:45.121Z,6.90
2023-01-10T19:16:17.166Z,6.90
2023-01-10T19:18:47.876Z,6.90
2023-01-10T19:21:16.196Z,6.90
2023-01-10T19:23:48.504Z,6.90
2023-01-10T19:26:15.591Z,7.00
2023-01-10T19:28:43.929Z,7.00
2023-01-10T19:31:18.618Z,7.00
2023-01-10T19:33:47.482Z,7.00
2023-01-10T19:36:16.783Z,7.10
2023-01-10T19:38:44.196Z,7.10
2023-01-10T19:41:11.439Z,7.10
2023-01-10T19:43:38.060Z,7.10
2023-01-10T19:46:11.791Z,7.10
2023-01-10T19:48:39.095Z,7.10
2023-01-10T19:51:06.793Z,7.20
2023-01-10T19:53:37.846Z,7.10
2023-01-10T19:56:09.514Z,7.10
2023-01-10T19:58:37.788Z,7.10
2023-01-10T20:01:13.549Z,7.20
2023-01-10T20:03:42.153Z,7.30
2023-01-10T20:06:14.236Z,7.30
2023-01-10T20:08:41.518Z,7.30
2023-01-10T20:11:08.779Z,7.30
2023-01-10T20:13:41.966Z,7.30
2023-01-10T20:16:08.983Z,7.30
2023-01-10T20:18:35.945Z,7.30
2023-01-10T20:21:07.607Z,7.30
2023-01-10T20:23:35.401Z,7.30
2023-01-10T20:26:06.570Z,7.40
2023-01-10T20:28:34.455Z,7.40
2023-01-10T20:31:01.309Z,7.40
2023-01-10T20:33:28.707Z,7.40
2023-01-10T20:36:04.150Z,7.40
2023-01-10T20:38:32.930Z,7.40
2023-01-10T20:41:11.908Z,7.40
2023-01-10T20:43:39.212Z,7.40
2023-01-10T20:46:08.541Z,7.30
2023-01-10T20:48:35.263Z,7.30
2023-01-10T20:51:02.340Z,7.30
2023-01-10T20:53:29.039Z,7.30
2023-01-10T20:56:00.057Z,7.30
2023-01-10T20:58:26.985Z,7.30
2023-01-10T21:00:54.081Z,7.30
2023-01-10T21:03:23.587Z,7.30
2023-01-10T21:05:54.451Z,7.40
2023-01-10T21:08:22.313Z,7.40
2023-01-10T21:10:50.244Z,7.50
2023-01-10T21:13:17.584Z,7.50
2023-01-10T21:15:46.441Z,7.60
2023-01-10T21:18:15.569Z,7.60
2023-01-10T21:20:43.723Z,7.70
2023-01-10T21:23:10.607Z,7.70
2023-01-10T21:25:37.376Z,7.70
2023-01-10T21:28:09.397Z,7.80
2023-01-10T21:30:37.444Z,7.80
2023-01-10T21:33:04.807Z,7.90
2023-01-10T21:35:32.560Z,7.90
2023-01-10T21:37:59.293Z,7.90
2023-01-10T21:40:27.197Z,7.90
2023-01-10T21:42:54.370Z,7.90
2023-01-10T21:45:21.947Z,8.00
2023-01-10T21:47:48.945Z,8.00
2023-01-10T21:50:16.823Z,8.00
2023-01-10T21:52:43.901Z,8.00
2023-01-10T21:55:13.715Z,8.10
2023-01-10T21:57:40.391Z,8.10
2023-01-10T22:00:08.033Z,8.10
